Time;durP1;ratioP1;P1;durP2;ratioP2;P2;SDS_P1;SDS_P2;PMS_P1;PMS_P2;Temp;Humidity;BMP_temperature;BMP_pressure;BME280_temperature;BME280_humidity;BME280_pressure;Samples;Min_cycle;Max_cycle;Signal;HPM_P1;HPM_P2
2022/08/21 00:01:42;;;;;;;3.22;1.00;;;18.60;99.90;;;;;;5024954;28;20459;-82
2022/08/21 00:04:10;;;;;;;1.85;0.70;;;18.60;99.90;;;;;;5026366;28;20511;-81
2022/08/21 00:06:40;;;;;;;2.95;0.95;;;18.60;99.90;;;;;;5026508;28;20077;-82
2022/08/21 00:09:08;;;;;;;4.30;1.02;;;18.60;99.90;;;;;;5026884;28;20057;-81
2022/08/21 00:11:37;;;;;;;5.22;1.33;;;18.60;99.90;;;;;;5031651;28;20079;-82
2022/08/21 00:14:07;;;;;;;2.63;0.88;;;18.60;99.90;;;;;;5025542;28;20073;-81
2022/08/21 00:16:34;;;;;;;3.97;1.20;;;18.60;99.90;;;;;;5041275;28;20081;-82
2022/08/21 00:19:00;;;;;;;4.88;0.90;;;18.60;99.90;;;;;;5041363;28;20050;-82
2022/08/21 00:21:27;;;;;;;2.58;1.00;;;18.60;99.90;;;;;;5042437;28;20064;-82
2022/08/21 00:23:54;;;;;;;2.45;0.70;;;19.40;99.90;;;;;;5042464;28;20064;-81
2022/08/21 00:26:21;;;;;;;5.32;1.15;;;18.50;99.90;;;;;;5041334;28;20054;-81
2022/08/21 00:28:48;;;;;;;4.53;1.10;;;18.60;99.90;;;;;;5040754;28;20504;-82
2022/08/21 00:31:16;;;;;;;2.53;0.88;;;18.60;99.90;;;;;;5024410;28;20049;-81
2022/08/21 00:33:44;;;;;;;3.88;0.88;;;18.50;99.90;;;;;;5024327;28;20050;-81
2022/08/21 00:36:11;;;;;;;1.60;0.90;;;18.50;99.90;;;;;;5027152;28;20484;-81
2022/08/21 00:38:38;;;;;;;2.10;1.20;;;18.40;99.90;;;;;;5027968;28;20081;-81
2022/08/21 00:41:07;;;;;;;8.00;1.00;;;18.50;99.90;;;;;;5026824;28;20132;-81
2022/08/21 00:43:55;;;;;;;3.60;1.10;;;18.30;99.90;;;;;;5028864;28;20058;-81
2022/08/21 00:46:22;;;;;;;3.28;0.98;;;18.40;99.90;;;;;;5027804;28;20113;-81
2022/08/21 00:48:55;;;;;;;3.97;0.88;;;18.30;99.90;;;;;;5028333;28;20054;-81
2022/08/21 00:51:36;;;;;;;2.03;0.73;;;18.40;99.90;;;;;;5027936;28;20058;-82
2022/08/21 00:54:05;;;;;;;3.40;1.20;;;18.40;99.90;;;;;;5024083;28;20046;-81
2022/08/21 00:56:44;;;;;;;4.43;1.30;;;18.30;99.90;;;;;;5033562;28;20056;-81
2022/08/21 00:59:11;;;;;;;8.32;1.25;;;18.30;99.90;;;;;;5030791;28;20052;-81
2022/08/21 01:01:38;;;;;;;2.88;1.27;;;18.30;99.90;;;;;;5039290;28;20511;-81
2022/08/21 01:04:05;;;;;;;4.32;1.10;;;18.20;99.90;;;;;;5039163;28;20071;-81
2022/08/21 01:06:31;;;;;;;3.22;1.10;;;18.20;99.90;;;;;;5043797;28;20053;-81
2022/08/21 01:08:58;;;;;;;4.55;0.80;;;18.20;99.90;;;;;;5029595;28;20076;-82
2022/08/21 01:11:25;;;;;;;7.30;1.20;;;18.20;99.90;;;;;;5031394;28;20081;-80
2022/08/21 01:13:53;;;;;;;3.00;1.13;;;18.20;99.90;;;;;;5024727;28;20045;-82
2022/08/21 01:16:21;;;;;;;3.17;0.93;;;18.20;99.90;;;;;;5024310;28;20084;-82
2022/08/21 01:18:49;;;;;;;2.08;0.90;;;18.20;99.90;;;;;;5029953;28;20065;-82
2022/08/21 01:21:22;;;;;;;6.40;1.23;;;18.40;99.90;;;;;;5030779;28;20056;-82
2022/08/21 01:23:55;;;;;;;3.97;1.00;;;18.10;99.90;;;;;;5036804;28;20053;-81
2022/08/21 01:26:25;;;;;;;2.03;1.00;;;18.10;99.90;;;;;;5037458;28;20049;-81
2022/08/21 01:29:30;;;;;;;5.47;1.10;;;18.10;99.90;;;;;;5031792;28;20056;-81
2022/08/21 01:31:59;;;;;;;3.78;1.05;;;18.00;99.90;;;;;;5032986;28;20145;-82
2022/08/21 01:34:25;;;;;;;3.85;1.05;;;17.90;99.90;;;;;;5032677;28;20084;-81
2022/08/21 01:36:52;;;;;;;2.95;1.15;;;18.00;99.90;;;;;;5032969;28;20069;-81
2022/08/21 01:39:19;;;;;;;3.97;1.05;;;18.00;99.90;;;;;;5028004;28;20061;-81
2022/08/21 01:41:46;;;;;;;2.60;1.00;;;18.00;99.90;;;;;;5032762;28;20033;-82
2022/08/21 01:44:13;;;;;;;2.38;1.08;;;18.00;99.90;;;;;;5038732;28;20053;-81
2022/08/21 01:46:39;;;;;;;2.15;0.98;;;17.90;99.90;;;;;;5034740;28;20065;-81
2022/08/21 01:49:06;;;;;;;2.17;0.93;;;17.90;99.90;;;;;;5031876;28;20050;-81
2022/08/21 01:51:33;;;;;;;3.63;0.95;;;17.90;99.90;;;;;;5032724;28;20057;-82
2022/08/21 01:54:00;;;;;;;4.90;1.25;;;17.90;99.90;;;;;;5033857;28;20409;-82
2022/08/21 01:56:27;;;;;;;2.03;1.05;;;18.20;99.90;;;;;;5033331;28;20072;-81
2022/08/21 01:58:54;;;;;;;2.92;1.42;;;17.80;99.90;;;;;;5034606;28;20248;-81
2022/08/21 02:01:21;;;;;;;4.35;1.02;;;18.00;99.90;;;;;;5036194;28;20038;-81
2022/08/21 02:03:48;;;;;;;5.68;1.17;;;17.80;99.90;;;;;;5013838;28;20116;-81
2022/08/21 02:06:17;;;;;;;4.53;1.33;;;17.80;99.90;;;;;;5013647;28;20080;-80
2022/08/21 02:08:45;;;;;;;3.60;1.33;;;17.80;99.90;;;;;;5021338;28;20061;-80
2022/08/21 02:11:12;;;;;;;3.95;1.08;;;17.70;99.90;;;;;;5028657;28;20143;-81
2022/08/21 02:13:39;;;;;;;4.63;1.10;;;17.80;99.90;;;;;;5029177;28;20046;-80
2022/08/21 02:16:07;;;;;;;4.80;1.25;;;18.50;99.90;;;;;;5028838;28;20136;-80
2022/08/21 02:18:35;;;;;;;5.57;1.60;;;17.70;99.90;;;;;;5028691;28;20049;-81
2022/08/21 02:21:03;;;;;;;2.95;1.20;;;17.80;99.90;;;;;;5029866;28;20455;-81
2022/08/21 02:23:30;;;;;;;3.78;1.20;;;17.80;99.90;;;;;;5019451;28;20136;-81
2022/08/21 02:25:58;;;;;;;2.25;1.08;;;17.80;99.90;;;;;;5020420;28;20121;-80
2022/08/21 02:28:25;;;;;;;5.80;1.13;;;17.90;99.90;;;;;;5030901;28;20076;-81
2022/08/21 02:30:55;;;;;;;2.45;1.65;;;17.90;99.90;;;;;;5034349;28;20522;-81
2022/08/21 02:33:23;;;;;;;4.57;1.40;;;17.90;99.90;;;;;;5035273;28;20046;-81
2022/08/21 02:35:51;;;;;;;6.30;1.40;;;17.90;99.90;;;;;;5035563;28;20108;-81
2022/08/21 02:38:21;;;;;;;5.35;1.90;;;17.90;99.90;;;;;;5017423;28;20084;-80
2022/08/21 02:40:50;;;;;;;4.45;1.20;;;17.90;99.90;;;;;;5015804;28;20084;-80
2022/08/21 02:43:18;;;;;;;1.83;1.10;;;17.90;99.90;;;;;;5020738;28;20389;-81
2022/08/21 02:45:45;;;;;;;4.20;1.30;;;17.90;99.90;;;;;;5031985;28;20080;-81
2022/08/21 02:48:16;;;;;;;4.35;1.00;;;17.90;99.90;;;;;;5031856;28;20056;-79
2022/08/21 02:50:45;;;;;;;;;;;17.90;99.90;;;;;;5022235;28;20050;-80
2022/08/21 02:53:16;;;;;;;2.60;1.17;;;18.10;99.90;;;;;;5020788;28;19968;-82
2022/08/21 02:55:45;;;;;;;3.65;1.20;;;17.90;99.90;;;;;;5033122;28;20038;-80
2022/08/21 02:58:13;;;;;;;2.17;0.98;;;17.90;99.90;;;;;;5019557;28;20076;-81
2022/08/21 03:00:39;;;;;;;3.78;1.25;;;17.90;99.90;;;;;;5024786;28;20109;-82
2022/08/21 03:03:06;;;;;;;2.97;1.55;;;17.90;99.90;;;;;;5030589;28;20125;-81
2022/08/21 03:05:35;;;;;;;4.72;1.58;;;17.90;99.90;;;;;;5030168;28;20046;-81
2022/08/21 03:08:03;;;;;;;2.35;1.85;;;17.90;99.90;;;;;;5025764;28;20053;-82
2022/08/21 03:10:30;;;;;;;4.05;1.48;;;17.90;99.90;;;;;;5025545;28;20081;-82
2022/08/21 03:12:57;;;;;;;5.03;1.35;;;17.90;99.90;;;;;;5042412;28;20046;-81
2022/08/21 03:15:24;;;;;;;4.97;1.27;;;17.80;99.90;;;;;;5041821;28;20365;-81
2022/08/21 03:17:52;;;;;;;4.57;1.08;;;17.80;99.90;;;;;;5042543;28;20076;-82
2022/08/21 03:20:22;;;;;;;2.05;1.15;;;17.80;99.90;;;;;;5042231;28;20128;-82
2022/08/21 03:22:50;;;;;;;4.00;1.30;;;17.70;99.90;;;;;;5043632;28;20133;-81
2022/08/21 03:25:20;;;;;;;2.83;1.23;;;17.70;99.90;;;;;;5042035;28;20049;-81
2022/08/21 03:28:11;;;;;;;5.30;1.20;;;17.80;99.90;;;;;;5042415;28;20053;-81
2022/08/21 03:30:43;;;;;;;4.10;1.35;;;17.60;99.90;;;;;;5042774;28;20053;-81
2022/08/21 03:33:10;;;;;;;4.13;1.50;;;17.60;99.90;;;;;;5027202;28;20088;-81
2022/08/21 03:35:42;;;;;;;6.00;1.55;;;17.60;99.90;;;;;;5025836;28;20050;-81
2022/08/21 03:38:11;;;;;;;7.53;2.05;;;17.50;99.90;;;;;;5024410;28;20042;-80
2022/08/21 03:40:37;;;;;;;7.53;1.38;;;17.50;99.90;;;;;;5023491;28;20049;-81
2022/08/21 03:43:04;;;;;;;2.40;1.45;;;17.50;99.90;;;;;;5038240;28;20057;-81
2022/08/21 03:45:32;;;;;;;9.18;1.45;;;17.50;99.90;;;;;;5024517;28;20074;-81
2022/08/21 03:48:01;;;;;;;4.70;1.55;;;17.40;99.90;;;;;;5023154;28;20077;-81
2022/08/21 03:50:31;;;;;;;5.40;1.13;;;17.40;99.90;;;;;;5031119;28;20057;-81
2022/08/21 03:53:00;;;;;;;6.78;1.40;;;17.40;99.90;;;;;;5040109;28;20086;-81
2022/08/21 03:55:27;;;;;;;3.78;1.40;;;17.30;99.90;;;;;;5023703;28;20123;-81
2022/08/21 03:57:55;;;;;;;3.78;1.40;;;17.40;99.90;;;;;;5039211;28;20472;-81
2022/08/21 04:00:23;;;;;;;6.03;1.58;;;17.40;99.90;;;;;;5024217;28;20423;-81
2022/08/21 04:02:50;;;;;;;7.88;1.35;;;17.40;99.90;;;;;;5024985;28;20073;-82
2022/08/21 04:05:26;;;;;;;2.33;1.15;;;17.30;99.90;;;;;;5025682;28;20050;-81
2022/08/21 04:08:01;;;;;;;4.07;1.50;;;17.30;99.90;;;;;;5025222;28;20049;-81
2022/08/21 04:10:31;;;;;;;8.52;1.75;;;17.30;99.90;;;;;;5023476;28;20053;-81
2022/08/21 04:12:58;;;;;;;8.00;1.55;;;17.30;99.90;;;;;;5025145;28;20050;-81
2022/08/21 04:15:26;;;;;;;2.90;1.30;;;17.20;99.90;;;;;;5025264;28;20054;-81
2022/08/21 04:17:53;;;;;;;6.20;1.40;;;17.30;99.90;;;;;;5039908;28;20050;-81
2022/08/21 04:20:21;;;;;;;4.03;1.42;;;17.30;99.90;;;;;;5024657;28;20082;-82
2022/08/21 04:22:50;;;;;;;2.65;1.33;;;17.30;99.90;;;;;;5025578;28;20061;-81
2022/08/21 04:25:19;;;;;;;2.65;1.30;;;17.30;99.90;;;;;;5039864;28;20055;-83
2022/08/21 04:27:46;;;;;;;6.45;1.20;;;17.50;99.90;;;;;;5041219;28;20574;-80
2022/08/21 04:30:15;;;;;;;4.38;1.88;;;17.10;99.90;;;;;;5039881;28;20069;-81
2022/08/21 04:32:47;;;;;;;6.07;1.50;;;17.20;99.90;;;;;;5025355;28;20056;-81
2022/08/21 04:35:17;;;;;;;2.08;1.40;;;17.20;99.90;;;;;;5027136;28;20077;-83
2022/08/21 04:37:44;;;;;;;3.90;1.15;;;17.20;99.90;;;;;;5026614;28;20137;-81
2022/08/21 04:40:13;;;;;;;3.35;1.27;;;17.80;99.90;;;;;;5027359;28;20041;-81
2022/08/21 04:42:49;;;;;;;2.08;1.30;;;17.10;99.90;;;;;;5024292;28;20046;-81
2022/08/21 04:45:23;;;;;;;2.83;1.50;;;17.20;99.90;;;;;;5041242;28;20046;-81
2022/08/21 04:47:54;;;;;;;2.28;1.30;;;17.20;99.90;;;;;;5025025;28;20060;-82
2022/08/21 04:50:26;;;;;;;1.88;1.50;;;17.20;99.90;;;;;;5028371;28;20113;-81
2022/08/21 04:52:53;;;;;;;2.83;1.30;;;17.10;99.90;;;;;;5026724;28;20060;-82
2022/08/21 04:55:22;;;;;;;2.70;1.50;;;17.20;99.90;;;;;;5027695;28;20070;-81
2022/08/21 04:57:50;;;;;;;8.35;2.50;;;17.20;99.90;;;;;;5026812;28;20046;-81
2022/08/21 05:00:18;;;;;;;6.60;1.40;;;17.30;99.90;;;;;;5026977;28;20176;-82
2022/08/21 05:02:47;;;;;;;14.27;1.67;;;17.20;99.90;;;;;;5028505;28;20423;-81
2022/08/21 05:05:15;;;;;;;6.70;1.80;;;17.20;99.90;;;;;;5029247;28;20053;-81
2022/08/21 05:07:43;;;;;;;4.18;1.50;;;17.20;99.90;;;;;;5029317;28;20076;-80
2022/08/21 05:10:11;;;;;;;2.00;1.30;;;17.50;99.90;;;;;;5029356;28;20046;-82
2022/08/21 05:12:41;;;;;;;3.53;2.05;;;17.20;99.90;;;;;;5027974;28;20148;-81
2022/08/21 05:15:09;;;;;;;2.50;1.40;;;17.20;99.90;;;;;;5022214;28;20137;-81
2022/08/21 05:17:42;;;;;;;4.05;1.50;;;17.20;99.90;;;;;;5030421;28;20046;-81
2022/08/21 05:20:19;;;;;;;4.60;1.40;;;17.20;99.90;;;;;;5029115;28;20046;-81
2022/08/21 05:22:46;;;;;;;4.80;1.48;;;17.20;99.90;;;;;;5029688;28;20052;-81
2022/08/21 05:25:13;;;;;;;3.75;1.63;;;17.20;99.90;;;;;;5031002;28;20054;-81
2022/08/21 05:27:42;;;;;;;6.63;1.70;;;17.20;99.90;;;;;;5029563;28;20049;-81
2022/08/21 05:30:10;;;;;;;3.70;1.58;;;17.20;99.90;;;;;;5031812;28;20060;-81
2022/08/21 05:32:37;;;;;;;4.53;1.83;;;17.20;99.90;;;;;;5032558;28;20065;-82
2022/08/21 05:35:05;;;;;;;3.63;1.30;;;17.30;99.90;;;;;;5032537;28;20457;-81
2022/08/21 05:37:33;;;;;;;5.03;1.50;;;17.30;99.90;;;;;;5024944;28;20050;-81
2022/08/21 05:40:00;;;;;;;13.00;1.83;;;17.30;99.90;;;;;;5030259;28;20061;-82
2022/08/21 05:42:47;;;;;;;3.22;1.65;;;17.40;99.90;;;;;;5035485;28;20107;-81
2022/08/21 05:45:24;;;;;;;5.57;1.77;;;17.40;99.90;;;;;;5044262;28;20049;-81
2022/08/21 05:48:17;;;;;;;4.65;1.70;;;17.40;99.90;;;;;;5040546;28;20077;-80
2022/08/21 05:50:46;;;;;;;9.18;2.20;;;17.50;99.90;;;;;;5038445;28;20128;-80
2022/08/21 05:53:14;;;;;;;2.55;1.40;;;17.50;99.90;;;;;;5039108;28;20050;-81
2022/08/21 05:55:42;;;;;;;4.60;1.80;;;17.50;99.90;;;;;;5034627;28;20061;-81
2022/08/21 05:58:14;;;;;;;5.10;1.40;;;17.60;99.90;;;;;;5037486;28;20046;-80
2022/08/21 06:00:41;;;;;;;8.90;3.03;;;17.60;99.90;;;;;;5036610;28;20072;-80
2022/08/21 06:03:23;;;;;;;2.03;1.30;;;17.70;99.90;;;;;;5027835;28;20451;-81
2022/08/21 06:05:50;;;;;;;6.93;2.13;;;17.70;99.90;;;;;;5031931;28;20500;-81
2022/08/21 06:08:18;;;;;;;6.82;1.83;;;17.80;99.90;;;;;;5043143;28;20049;-81
2022/08/21 06:10:46;;;;;;;7.20;1.95;;;17.90;99.90;;;;;;5035986;28;20100;-81
2022/08/21 06:13:15;;;;;;;5.50;2.20;;;18.00;99.90;;;;;;5034401;28;20049;-81
2022/08/21 06:15:42;;;;;;;6.13;2.42;;;18.10;99.90;;;;;;5034539;28;20066;-80
2022/08/21 06:18:09;;;;;;;4.63;1.73;;;18.20;99.90;;;;;;5033323;28;20070;-79
2022/08/21 06:20:36;;;;;;;5.57;1.88;;;18.40;99.90;;;;;;5033078;28;20068;-82
2022/08/21 06:23:04;;;;;;;5.32;2.00;;;18.40;99.90;;;;;;5035045;28;20073;-80
2022/08/21 06:25:31;;;;;;;5.18;1.85;;;18.50;99.90;;;;;;5034850;28;20050;-81
2022/08/21 06:28:02;;;;;;;4.35;2.10;;;18.60;99.90;;;;;;5034490;28;20054;-81
2022/08/21 06:30:29;;;;;;;8.38;2.00;;;18.60;99.90;;;;;;5040010;28;20049;-81
2022/08/21 06:32:55;;;;;;;2.45;1.83;;;18.60;99.90;;;;;;5041721;28;20050;-80
2022/08/21 06:35:24;;;;;;;4.45;1.73;;;18.70;99.90;;;;;;5040393;28;20041;-81
2022/08/21 06:37:51;;;;;;;5.80;1.95;;;18.70;99.90;;;;;;5036471;28;20092;-81
2022/08/21 06:40:17;;;;;;;6.20;1.77;;;18.60;99.90;;;;;;5036061;28;20611;-82
2022/08/21 06:42:44;;;;;;;7.90;2.17;;;18.60;99.90;;;;;;5033243;28;20046;-81
2022/08/21 06:45:13;;;;;;;4.18;2.13;;;18.70;99.90;;;;;;5030216;28;20531;-81
2022/08/21 06:47:40;;;;;;;4.78;1.95;;;18.70;99.90;;;;;;5038198;28;20069;-81
2022/08/21 06:50:08;;;;;;;4.00;2.28;;;18.70;99.90;;;;;;5038306;28;20064;-81
2022/08/21 06:52:36;;;;;;;3.88;1.88;;;18.80;99.90;;;;;;5039036;28;20073;-81
2022/08/21 06:55:08;;;;;;;4.70;2.35;;;18.70;99.90;;;;;;5038990;28;20133;-82
2022/08/21 06:57:35;;;;;;;5.05;2.05;;;18.80;99.90;;;;;;5029099;28;20109;-81
2022/08/21 07:00:06;;;;;;;2.33;1.60;;;18.90;99.90;;;;;;5028420;28;20142;-82
2022/08/21 07:02:33;;;;;;;4.95;2.05;;;18.90;99.90;;;;;;5039331;28;20049;-81
2022/08/21 07:05:00;;;;;;;8.55;2.60;;;18.90;99.90;;;;;;5040054;28;20136;-81
2022/08/21 07:07:44;;;;;;;6.57;2.58;;;18.90;99.90;;;;;;5041227;28;20568;-81
2022/08/21 07:10:11;;;;;;;5.35;1.90;;;19.00;99.90;;;;;;5038151;28;20419;-82
2022/08/21 07:12:48;;;;;;;2.53;1.83;;;19.10;99.90;;;;;;5037374;28;20053;-81
2022/08/21 07:15:16;;;;;;;1.73;1.50;;;19.10;99.90;;;;;;5038260;28;20049;-81
2022/08/21 07:17:43;;;;;;;3.17;1.73;;;19.20;99.90;;;;;;5039282;28;20137;-81
2022/08/21 07:20:10;;;;;;;6.28;1.85;;;19.20;99.90;;;;;;5038693;28;20073;-81
2022/08/21 07:22:40;;;;;;;5.15;2.17;;;19.20;99.90;;;;;;5024536;28;20053;-82
2022/08/21 07:25:07;;;;;;;4.03;1.70;;;19.30;99.90;;;;;;5027993;28;20060;-82
2022/08/21 07:27:34;;;;;;;3.45;1.60;;;19.50;99.90;;;;;;5040883;28;20253;-83
2022/08/21 07:30:01;;;;;;;4.72;1.80;;;19.60;99.90;;;;;;5029455;28;20053;-82
2022/08/21 07:32:28;;;;;;;2.88;2.05;;;19.70;99.90;;;;;;5023027;28;20056;-82
2022/08/21 07:34:54;;;;;;;4.75;2.03;;;19.80;99.90;;;;;;5024414;28;20092;-83
2022/08/21 07:37:21;;;;;;;3.88;1.88;;;19.90;99.90;;;;;;5023524;28;20129;-81
2022/08/21 07:39:48;;;;;;;3.78;1.77;;;20.00;99.90;;;;;;5024998;28;20049;-81
2022/08/21 07:42:15;;;;;;;2.10;1.90;;;20.10;99.90;;;;;;5039861;28;20136;-83
2022/08/21 07:44:43;;;;;;;2.67;1.50;;;20.20;99.90;;;;;;5040774;28;20103;-82
2022/08/21 07:47:09;;;;;;;5.15;2.03;;;20.20;99.90;;;;;;5041082;28;20060;-83
2022/08/21 07:49:36;;;;;;;6.28;1.80;;;20.30;99.90;;;;;;5046026;28;20049;-81
2022/08/21 07:52:03;;;;;;;3.47;2.10;;;20.40;99.90;;;;;;5045529;28;20080;-83
2022/08/21 07:54:30;;;;;;;5.78;1.77;;;20.50;99.90;;;;;;5044312;28;20060;-84
2022/08/21 07:57:00;;;;;;;9.48;2.50;;;20.70;99.90;;;;;;5046563;28;20045;-84
2022/08/21 07:59:27;;;;;;;4.20;1.88;;;20.70;99.90;;;;;;5031129;28;20046;-83
2022/08/21 08:01:54;;;;;;;4.70;2.10;;;20.80;99.90;;;;;;5024742;28;20073;-82
2022/08/21 08:04:21;;;;;;;2.78;1.55;;;20.80;99.90;;;;;;5026734;28;20053;-81
2022/08/21 08:06:52;;;;;;;2.88;1.90;;;20.90;99.90;;;;;;5026887;28;20046;-82
2022/08/21 08:09:19;;;;;;;3.20;1.85;;;20.90;99.90;;;;;;5029854;28;20080;-83
2022/08/21 08:11:46;;;;;;;4.38;2.13;;;20.90;99.90;;;;;;5033137;28;20050;-82
2022/08/21 08:14:12;;;;;;;6.30;2.13;;;20.80;99.90;;;;;;5031870;28;20049;-82
2022/08/21 08:16:39;;;;;;;5.53;2.38;;;20.80;99.90;;;;;;5050228;28;20080;-81
2022/08/21 08:19:06;;;;;;;3.80;1.52;;;20.80;99.90;;;;;;5048166;28;20144;-83
2022/08/21 08:21:34;;;;;;;4.03;1.70;;;20.80;99.90;;;;;;5048429;28;20113;-82
2022/08/21 08:24:01;;;;;;;7.20;1.67;;;20.70;99.90;;;;;;5033461;28;20057;-82
2022/08/21 08:26:45;;;;;;;6.47;2.15;;;20.70;99.90;;;;;;5032763;28;20057;-82
2022/08/21 08:29:19;;;;;;;6.55;2.70;;;20.70;99.90;;;;;;5033865;28;20046;-82
2022/08/21 08:31:46;;;;;;;4.40;2.10;;;20.60;99.90;;;;;;5049108;28;20084;-81
2022/08/21 08:34:12;;;;;;;3.33;1.90;;;20.60;99.90;;;;;;5034366;28;20053;-83
2022/08/21 08:36:51;;;;;;;4.65;2.13;;;20.60;99.90;;;;;;5034688;28;20050;-82
2022/08/21 08:39:18;;;;;;;2.70;1.83;;;20.60;99.90;;;;;;5033929;28;20052;-82
2022/08/21 08:42:10;;;;;;;7.53;1.90;;;20.50;99.90;;;;;;5034033;28;20046;-81
2022/08/21 08:45:09;;;;;;;7.78;2.03;;;20.50;99.90;;;;;;5035303;28;20136;-82
2022/08/21 08:47:40;;;;;;;4.25;2.22;;;20.50;99.90;;;;;;5032922;28;20054;-81
2022/08/21 08:50:21;;;;;;;3.05;1.60;;;20.60;99.90;;;;;;5034005;28;20057;-81
2022/08/21 08:52:54;;;;;;;4.65;2.20;;;20.60;99.90;;;;;;5047593;28;20045;-83
2022/08/21 08:55:26;;;;;;;4.53;1.95;;;20.60;99.90;;;;;;5046970;28;20080;-81
2022/08/21 08:57:54;;;;;;;4.00;1.90;;;20.60;99.90;;;;;;5044215;28;20045;-82
2022/08/21 09:00:22;;;;;;;5.28;1.95;;;20.50;99.90;;;;;;5046877;28;20050;-82
2022/08/21 09:02:54;;;;;;;6.65;2.35;;;20.60;99.90;;;;;;5031228;28;20049;-82
2022/08/21 09:05:27;;;;;;;8.63;1.92;;;20.70;99.90;;;;;;5032777;28;20056;-82
2022/08/21 09:08:20;;;;;;;3.55;2.20;;;20.70;99.90;;;;;;5044164;28;20053;-83
2022/08/21 09:11:01;;;;;;;6.47;2.20;;;20.70;99.90;;;;;;5036429;28;20049;-83
2022/08/21 09:13:47;;;;;;;5.13;2.05;;;20.80;99.90;;;;;;5036894;28;20046;-83
2022/08/21 09:16:30;;;;;;;6.68;2.15;;;20.80;99.90;;;;;;5044653;28;20415;-82
2022/08/21 09:19:06;;;;;;;8.40;2.28;;;20.80;99.90;;;;;;5045553;28;20114;-83
2022/08/21 09:21:49;;;;;;;6.15;2.35;;;20.80;99.90;;;;;;5039193;28;20046;-82
2022/08/21 09:24:38;;;;;;;6.70;2.30;;;20.80;99.90;;;;;;5033421;28;20068;-83
2022/08/21 09:27:14;;;;;;;8.40;2.33;;;20.90;99.90;;;;;;5036774;28;20345;-84
2022/08/21 09:29:47;;;;;;;7.93;2.92;;;20.90;99.90;;;;;;5040319;28;20052;-83
2022/08/21 09:32:29;;;;;;;7.15;2.25;;;20.90;99.90;;;;;;5032642;28;20058;-83
2022/08/21 09:35:19;;;;;;;6.20;2.33;;;21.00;99.90;;;;;;5031388;28;20460;-83
2022/08/21 09:37:57;;;;;;;7.95;2.00;;;21.00;99.90;;;;;;5032740;28;20054;-83
2022/08/21 09:40:37;;;;;;;15.52;2.25;;;21.10;99.90;;;;;;5035806;28;20049;-83
2022/08/21 09:43:16;;;;;;;4.93;2.22;;;21.10;99.90;;;;;;5025918;28;20096;-83
2022/08/21 09:45:45;;;;;;;4.70;1.95;;;21.20;99.90;;;;;;5031442;28;20102;-84
2022/08/21 09:48:14;;;;;;;6.97;1.92;;;21.10;99.90;;;;;;5025526;28;20531;-82
2022/08/21 09:50:51;;;;;;;7.13;1.90;;;21.10;99.90;;;;;;5033382;28;20112;-82
2022/08/21 09:53:22;;;;;;;7.25;2.50;;;21.20;99.90;;;;;;5025305;28;20607;-82
2022/08/21 09:58:41;;;;;;;4.63;1.80;;;21.30;99.90;;;;;;5043450;28;20046;-82
2022/08/21 10:01:14;;;;;;;4.65;1.65;;;21.40;99.90;;;;;;5042867;28;20045;-81
2022/08/21 10:03:42;;;;;;;4.18;1.88;;;21.40;99.90;;;;;;5033402;28;20050;-83
2022/08/21 10:06:10;;;;;;;7.93;2.28;;;21.40;99.90;;;;;;5034167;28;20061;-83
2022/08/21 10:08:40;;;;;;;5.57;2.25;;;21.50;99.90;;;;;;5032812;28;20439;-82
2022/08/21 10:11:14;;;;;;;6.00;2.30;;;21.50;99.90;;;;;;5034224;28;20487;-83
2022/08/21 10:13:55;;;;;;;7.82;2.33;;;21.60;99.90;;;;;;5039664;28;20045;-83
2022/08/21 10:16:44;;;;;;;4.90;2.28;;;21.60;99.90;;;;;;5034290;28;20048;-82
2022/08/21 10:19:31;;;;;;;5.00;2.40;;;21.60;99.90;;;;;;5030562;28;20085;-81
2022/08/21 10:22:17;;;;;;;7.78;2.40;;;21.60;99.90;;;;;;5029808;28;20048;-81
2022/08/21 10:24:52;;;;;;;5.07;2.05;;;21.70;99.90;;;;;;5030254;28;20056;-81
2022/08/21 10:27:29;;;;;;;4.78;1.90;;;21.80;99.90;;;;;;5035775;28;20072;-81
2022/08/21 10:30:07;;;;;;;7.80;2.25;;;21.90;99.90;;;;;;5038544;28;20045;-82
2022/08/21 10:32:51;;;;;;;8.93;2.25;;;22.00;99.90;;;;;;5035847;28;20046;-82
2022/08/21 10:35:31;;;;;;;4.93;1.90;;;22.00;99.90;;;;;;5033434;28;20109;-83
2022/08/21 10:38:36;;;;;;;2.85;1.38;;;22.00;99.90;;;;;;5038957;28;20050;-82
2022/08/21 10:41:34;;;;;;;5.10;1.85;;;22.10;99.90;;;;;;5032334;28;20050;-82
2022/08/21 10:44:07;;;;;;;6.90;1.80;;;22.30;99.90;;;;;;5032927;28;20049;-83
2022/08/21 10:46:55;;;;;;;3.80;1.75;;;22.30;99.90;;;;;;5038434;28;20069;-82
2022/08/21 10:49:29;;;;;;;6.35;1.70;;;22.30;99.90;;;;;;5032156;28;20084;-82
2022/08/21 10:52:21;;;;;;;8.30;2.03;;;22.30;99.90;;;;;;5033410;28;20058;-82
2022/08/21 10:55:06;;;;;;;8.20;1.73;;;22.30;99.90;;;;;;5041314;28;20199;-82
2022/08/21 10:58:18;;;;;;;3.08;1.65;;;22.50;99.90;;;;;;5041647;28;20045;-83
2022/08/21 11:00:50;;;;;;;4.63;1.67;;;22.50;99.90;;;;;;5028356;28;20475;-83
2022/08/21 11:03:20;;;;;;;6.60;1.60;;;22.50;99.90;;;;;;5031430;28;20077;-83
2022/08/21 11:05:54;;;;;;;6.38;1.83;;;22.60;99.90;;;;;;5031116;28;20073;-83
2022/08/21 11:08:36;;;;;;;4.55;1.65;;;22.60;99.90;;;;;;5035429;28;20053;-83
2022/08/21 11:11:13;;;;;;;6.00;2.13;;;22.70;99.90;;;;;;5029163;28;20045;-82
2022/08/21 11:13:53;;;;;;;4.47;1.67;;;22.70;99.90;;;;;;5029140;28;20076;-82
2022/08/21 11:16:45;;;;;;;5.18;2.00;;;22.70;99.90;;;;;;5029030;28;20069;-82
2022/08/21 11:19:40;;;;;;;7.30;2.50;;;22.70;99.90;;;;;;5029401;28;20076;-83
2022/08/21 11:22:32;;;;;;;4.25;1.77;;;22.90;99.90;;;;;;5022573;28;20046;-84
2022/08/21 11:25:25;;;;;;;6.30;1.98;;;23.00;99.90;;;;;;5042491;28;20076;-82
2022/08/21 11:28:17;;;;;;;6.10;1.70;;;22.90;99.90;;;;;;5042919;28;20359;-82
2022/08/21 11:30:52;;;;;;;4.75;2.40;;;23.00;99.90;;;;;;5027642;28;20057;-82
2022/08/21 11:33:39;;;;;;;5.50;1.40;;;23.00;99.90;;;;;;5026723;28;20049;-82
2022/08/21 11:36:08;;;;;;;2.13;1.05;;;23.00;99.90;;;;;;5025656;28;20058;-84
2022/08/21 11:38:45;;;;;;;5.20;1.70;;;23.00;99.90;;;;;;5038936;28;20049;-82
2022/08/21 11:41:25;;;;;;;7.45;1.90;;;23.20;99.90;;;;;;5025533;28;20049;-83
2022/08/21 11:44:03;;;;;;;2.80;1.33;;;23.20;99.90;;;;;;5025767;28;20057;-82
2022/08/21 11:46:47;;;;;;;2.55;1.17;;;23.30;99.90;;;;;;5025937;28;20113;-82
2022/08/21 11:49:42;;;;;;;5.38;1.67;;;23.40;99.90;;;;;;5024996;28;20054;-82
2022/08/21 11:52:18;;;;;;;3.80;1.33;;;23.50;99.90;;;;;;5028091;28;20096;-83
2022/08/21 11:55:30;;;;;;;8.15;1.75;;;23.60;99.90;;;;;;5044326;28;20061;-82
2022/08/21 11:58:27;;;;;;;2.90;1.58;;;23.60;99.90;;;;;;5017921;28;20053;-84
2022/08/21 12:01:04;;;;;;;2.60;1.30;;;23.80;99.90;;;;;;5025936;28;20503;-83
2022/08/21 12:03:35;;;;;;;4.40;1.88;;;24.00;99.90;;;;;;5030834;28;20111;-84
2022/08/21 12:06:08;;;;;;;4.80;1.75;;;24.00;99.90;;;;;;5024630;28;20540;-83
2022/08/21 12:08:45;;;;;;;8.40;1.80;;;24.00;99.90;;;;;;5039126;28;20499;-84
2022/08/21 12:11:18;;;;;;;6.28;1.45;;;23.90;99.90;;;;;;5024201;28;20560;-83
2022/08/21 12:13:58;;;;;;;5.22;1.70;;;23.90;99.90;;;;;;5024526;28;20077;-82
2022/08/21 12:16:49;;;;;;;4.15;1.50;;;24.00;99.90;;;;;;5042146;28;20534;-85
2022/08/21 12:19:25;;;;;;;5.90;1.48;;;23.80;99.90;;;;;;5035036;28;20085;-82
2022/08/21 12:21:54;;;;;;;6.10;1.33;;;24.00;99.90;;;;;;5042232;28;20076;-83
2022/08/21 12:24:27;;;;;;;3.10;1.27;;;24.00;99.90;;;;;;5041944;28;20076;-83
2022/08/21 12:27:25;;;;;;;4.90;1.55;;;24.10;99.90;;;;;;5026071;28;20506;-82
2022/08/21 12:29:57;;;;;;;2.95;1.15;;;24.10;99.90;;;;;;5025993;28;20057;-84
2022/08/21 12:32:29;;;;;;;2.90;1.60;;;24.00;99.90;;;;;;5026555;28;20056;-82
2022/08/21 12:35:14;;;;;;;4.20;1.17;;;24.00;99.90;;;;;;5025789;28;20053;-82
2022/08/21 12:38:26;;;;;;;2.53;1.33;;;24.10;99.90;;;;;;5026655;28;20097;-83
2022/08/21 12:41:05;;;;;;;3.58;1.20;;;24.20;99.90;;;;;;5028931;28;20042;-83
2022/08/21 12:43:37;;;;;;;4.80;1.50;;;24.20;99.90;;;;;;5026578;28;20073;-84
2022/08/21 12:46:05;;;;;;;8.00;1.48;;;24.20;99.90;;;;;;5027686;28;20050;-84
2022/08/21 12:48:42;;;;;;;4.28;2.03;;;24.00;99.90;;;;;;5026928;28;20056;-83
2022/08/21 12:51:16;;;;;;;5.43;1.40;;;24.00;99.90;;;;;;5027413;28;20141;-84
2022/08/21 12:53:45;;;;;;;4.20;1.58;;;23.90;99.90;;;;;;5038629;28;20056;-84
2022/08/21 12:56:20;;;;;;;3.72;1.30;;;23.80;99.90;;;;;;5040480;28;20077;-84
2022/08/21 12:58:50;;;;;;;4.55;1.17;;;23.80;99.90;;;;;;5042662;28;20098;-84
2022/08/21 13:01:38;;;;;;;2.95;1.20;;;23.80;99.90;;;;;;5036319;28;20064;-83
2022/08/21 13:04:15;;;;;;;3.42;1.05;;;23.70;99.90;;;;;;5036195;28;20045;-83
2022/08/21 13:06:46;;;;;;;1.20;0.80;;;23.70;99.90;;;;;;5025470;28;20077;-82
2022/08/21 13:09:16;;;;;;;1.73;1.00;;;23.80;99.90;;;;;;5027427;28;20053;-83
2022/08/21 13:11:45;;;;;;;1.77;1.02;;;24.00;99.90;;;;;;5028147;28;20046;-84
2022/08/21 13:14:41;;;;;;;3.75;1.00;;;23.90;99.90;;;;;;5028827;28;20056;-83
2022/08/21 13:17:16;;;;;;;4.75;0.82;;;23.90;99.90;;;;;;5028490;28;20042;-83
2022/08/21 13:20:00;;;;;;;2.22;1.00;;;23.90;99.90;;;;;;5036328;28;20065;-83